Time;durP1;ratioP1;P1;durP2;ratioP2;P2;SDS_P1;SDS_P2;PMS_P1;PMS_P2;Temp;Humidity;BMP_temperature;BMP_pressure;BME280_temperature;BME280_humidity;BME280_pressure;Samples;Min_cycle;Max_cycle;Signal;HPM_P1;HPM_P2
2022/07/11 00:02:09;;;;;;;0.65;0.17;;;;;;;20.02;56.64;100485.66;5038509;28;20542;-62
2022/07/11 00:04:35;;;;;;;0.93;0.30;;;;;;;20.56;55.56;100484.16;5040507;28;20089;-62
2022/07/11 00:07:02;;;;;;;2.40;0.30;;;;;;;20.91;53.66;100484.66;5037258;28;20060;-64
2022/07/11 00:09:28;;;;;;;1.23;0.30;;;;;;;19.94;56.46;100480.75;5048098;28;20033;-62
2022/07/11 00:11:54;;;;;;;0.90;0.20;;;;;;;20.03;56.77;100484.69;5059303;28;20107;-62
2022/07/11 00:14:19;;;;;;;0.90;0.25;;;;;;;20.11;56.52;100479.78;5069571;28;20036;-62
2022/07/11 00:16:45;;;;;;;0.47;0.25;;;;;;;20.09;56.57;100476.34;5070202;28;20115;-62
2022/07/11 00:19:10;;;;;;;0.55;0.13;;;;;;;20.08;56.09;100469.28;5049824;28;20039;-62
2022/07/11 00:21:37;;;;;;;0.50;0.20;;;;;;;20.11;56.26;100463.78;5051812;28;20024;-62
2022/07/11 00:24:03;;;;;;;0.85;0.20;;;;;;;19.97;55.94;100469.91;5067838;28;20037;-62
2022/07/11 00:26:29;;;;;;;0.90;0.20;;;;;;;19.77;56.57;100471.09;5037650;28;20383;-62
2022/07/11 00:28:55;;;;;;;2.10;0.22;;;;;;;19.93;56.21;100458.56;5062462;28;20033;-62
2022/07/11 00:31:21;;;;;;;0.98;0.38;;;;;;;19.57;55.55;100472.22;5038388;28;20073;-62
2022/07/11 00:33:47;;;;;;;1.40;0.40;;;;;;;19.51;56.73;100469.91;5051073;28;20133;-59
2022/07/11 00:36:12;;;;;;;1.00;0.45;;;;;;;19.60;56.87;100463.19;5032041;28;20029;-62
2022/07/11 00:38:38;;;;;;;0.70;0.20;;;;;;;19.70;56.62;100461.72;5063556;28;20029;-62
2022/07/11 00:41:04;;;;;;;1.35;0.20;;;;;;;19.83;56.22;100462.75;5037519;28;20033;-63
2022/07/11 00:43:35;;;;;;;1.30;0.20;;;;;;;19.82;55.81;100466.34;5045081;28;20032;-63
2022/07/11 00:46:01;;;;;;;0.85;0.60;;;;;;;19.90;55.45;100474.75;5051277;28;20231;-63
2022/07/11 00:48:27;;;;;;;0.98;0.38;;;;;;;19.75;55.27;100470.34;5040966;28;20032;-62
2022/07/11 00:50:53;;;;;;;1.60;0.60;;;;;;;19.84;55.08;100480.44;5065710;28;20044;-62
2022/07/11 00:53:20;;;;;;;0.40;0.38;;;;;;;19.73;55.34;100469.56;5032218;28;20399;-62
2022/07/11 00:55:46;;;;;;;0.57;0.30;;;;;;;19.77;55.39;100471.09;5039212;28;20090;-63
2022/07/11 00:58:12;;;;;;;0.57;0.38;;;;;;;19.74;55.11;100465.94;5021746;28;20028;-62
2022/07/11 01:00:39;;;;;;;0.57;0.20;;;;;;;19.66;55.31;100465.53;5041299;28;20108;-62
2022/07/11 01:03:05;;;;;;;1.25;0.30;;;;;;;19.66;55.65;100471.69;5064360;28;20086;-64
2022/07/11 01:05:31;;;;;;;0.35;0.28;;;;;;;19.72;55.71;100467.84;5048870;28;20016;-62
2022/07/11 01:07:56;;;;;;;0.82;0.47;;;;;;;19.72;55.66;100467.00;5071606;28;20028;-62
2022/07/11 01:10:23;;;;;;;1.08;0.30;;;;;;;19.68;55.68;100467.16;5054180;28;20064;-62
2022/07/11 01:12:49;;;;;;;0.40;0.20;;;;;;;19.76;55.91;100461.38;5049384;28;20024;-63
2022/07/11 01:15:14;;;;;;;0.50;0.30;;;;;;;19.64;56.06;100454.09;5052868;28;20052;-62
2022/07/11 01:17:40;;;;;;;1.10;0.32;;;;;;;19.41;56.54;100461.56;5058175;28;20108;-62
2022/07/11 01:20:06;;;;;;;1.25;0.40;;;;;;;19.18;57.03;100451.34;5041063;28;20140;-62
2022/07/11 01:22:37;;;;;;;1.13;0.30;;;;;;;19.10;57.20;100443.78;5030703;28;20067;-62
2022/07/11 01:25:02;;;;;;;0.93;0.22;;;;;;;19.07;57.07;100436.00;5064751;28;20060;-63
2022/07/11 01:27:29;;;;;;;1.33;0.30;;;;;;;18.97;57.08;100434.78;5040936;28;20060;-62
2022/07/11 01:29:54;;;;;;;0.30;0.15;;;;;;;18.83;57.55;100424.91;5053749;28;20032;-63
2022/07/11 01:32:21;;;;;;;0.68;0.20;;;;;;;18.76;57.52;100423.53;5058521;28;20465;-62
2022/07/11 01:34:47;;;;;;;3.08;0.35;;;;;;;18.73;57.65;100429.00;5054044;28;20024;-62
2022/07/11 01:37:12;;;;;;;1.58;0.30;;;;;;;18.67;57.59;100429.28;5068619;28;20041;-63
2022/07/11 01:39:37;;;;;;;0.30;0.20;;;;;;;18.56;57.81;100426.38;5072404;28;20025;-62
2022/07/11 01:42:03;;;;;;;0.60;0.30;;;;;;;18.49;58.24;100423.19;5051840;28;20021;-63
2022/07/11 01:44:29;;;;;;;0.77;0.40;;;;;;;18.51;57.77;100420.44;5042791;28;20120;-62
2022/07/11 01:46:54;;;;;;;0.55;0.28;;;;;;;18.45;57.87;100429.59;5057160;28;20029;-62
2022/07/11 01:49:20;;;;;;;1.00;0.35;;;;;;;18.38;58.02;100431.72;5007514;28;20047;-62
2022/07/11 01:51:46;;;;;;;1.42;0.35;;;;;;;18.31;57.99;100424.16;5057235;28;20048;-62
2022/07/11 01:54:11;;;;;;;1.17;0.30;;;;;;;18.30;58.12;100425.09;5039755;28;20033;-62
2022/07/11 01:56:37;;;;;;;0.82;0.20;;;;;;;18.29;58.06;100423.38;5039949;28;20503;-63
2022/07/11 01:59:02;;;;;;;0.68;0.30;;;;;;;18.27;58.15;100423.44;5068576;28;20032;-63
2022/07/11 02:01:28;;;;;;;0.52;0.22;;;;;;;18.38;57.94;100430.88;5068699;28;20379;-62
2022/07/11 02:03:54;;;;;;;2.05;0.30;;;;;;;18.46;57.60;100429.50;5067605;28;20073;-62
2022/07/11 02:06:22;;;;;;;2.25;0.40;;;;;;;18.56;57.33;100434.38;5051546;28;20060;-62
2022/07/11 02:08:51;;;;;;;0.73;0.30;;;;;;;18.80;57.00;100443.69;5053665;28;20024;-62
2022/07/11 02:11:16;;;;;;;1.00;0.30;;;;;;;18.86;56.72;100450.47;5058139;28;20082;-62
2022/07/11 02:13:42;;;;;;;0.38;0.20;;;;;;;18.84;56.46;100450.56;5067755;28;20424;-62
2022/07/11 02:16:07;;;;;;;0.90;0.30;;;;;;;18.86;56.53;100456.66;5064646;28;20039;-62
2022/07/11 02:18:34;;;;;;;0.70;0.30;;;;;;;18.78;56.75;100461.53;5039143;28;20033;-62
2022/07/11 02:21:00;;;;;;;1.38;0.40;;;;;;;18.92;56.35;100469.66;5056770;28;20040;-62
2022/07/11 02:23:26;;;;;;;3.75;0.68;;;;;;;18.80;56.64;100470.31;5056503;28;20029;-62
2022/07/11 02:25:53;;;;;;;0.80;0.40;;;;;;;18.74;56.58;100467.13;5054779;28;20033;-62
2022/07/11 02:28:19;;;;;;;0.98;0.30;;;;;;;18.74;56.66;100465.31;5069314;28;20031;-62
2022/07/11 02:30:47;;;;;;;0.70;0.28;;;;;;;18.66;56.85;100460.38;5051947;28;20028;-63
2022/07/11 02:33:16;;;;;;;1.40;0.30;;;;;;;18.77;56.92;100467.81;5051402;28;20035;-62
2022/07/11 02:35:43;;;;;;;0.43;0.25;;;;;;;18.87;56.78;100462.84;5062262;28;20040;-63
2022/07/11 02:38:09;;;;;;;1.25;0.30;;;;;;;18.89;56.62;100464.47;5040063;28;20563;-62
2022/07/11 02:40:34;;;;;;;0.70;0.30;;;;;;;18.83;56.85;100456.84;5063295;28;20036;-62
2022/07/11 02:42:59;;;;;;;1.42;0.40;;;;;;;18.92;56.55;100463.47;5046509;28;20032;-62
2022/07/11 02:45:25;;;;;;;0.68;0.30;;;;;;;18.91;56.53;100454.63;5052831;28;20040;-62
2022/07/11 02:47:50;;;;;;;1.20;0.20;;;;;;;19.02;56.67;100447.84;5050114;28;20105;-62
2022/07/11 02:50:16;;;;;;;2.22;0.40;;;;;;;18.81;56.81;100450.75;5039106;28;20101;-62
2022/07/11 02:52:42;;;;;;;2.22;0.38;;;;;;;18.75;57.08;100451.09;5067437;28;20410;-62
2022/07/11 02:55:09;;;;;;;1.20;0.40;;;;;;;18.75;56.98;100450.19;5039444;28;20041;-63
2022/07/11 02:57:36;;;;;;;2.40;0.35;;;;;;;18.64;57.45;100443.66;5047545;28;20039;-63
2022/07/11 03:00:04;;;;;;;0.73;0.40;;;;;;;18.54;57.61;100453.03;5039475;28;20112;-62
2022/07/11 03:02:30;;;;;;;0.80;0.47;;;;;;;18.50;57.68;100455.97;5057116;28;20499;-62
2022/07/11 03:04:58;;;;;;;1.10;0.47;;;;;;;18.37;58.06;100450.44;5041614;28;20029;-63
2022/07/11 03:07:26;;;;;;;0.75;0.43;;;;;;;18.21;58.21;100450.38;5017597;28;20036;-62
2022/07/11 03:09:52;;;;;;;2.58;0.60;;;;;;;17.95;58.83;100460.56;5062806;28;20032;-62
2022/07/11 03:12:18;;;;;;;1.98;0.35;;;;;;;18.04;58.55;100447.75;5052808;28;20048;-62
2022/07/11 03:14:43;;;;;;;0.82;0.47;;;;;;;17.88;59.21;100451.19;5039887;28;20108;-63
2022/07/11 03:17:08;;;;;;;1.05;0.50;;;;;;;18.01;59.25;100458.53;5057181;28;20106;-62
2022/07/11 03:19:34;;;;;;;1.65;0.50;;;;;;;18.08;58.98;100465.25;5059034;28;20431;-62
2022/07/11 03:21:59;;;;;;;2.55;0.40;;;;;;;17.94;59.68;100468.59;5066065;28;20024;-62
2022/07/11 03:24:25;;;;;;;1.45;0.60;;;;;;;18.06;59.13;100467.13;5073648;28;20158;-62
2022/07/11 03:26:50;;;;;;;1.30;0.60;;;;;;;18.09;58.91;100459.00;5056812;28;20060;-63
2022/07/11 03:29:17;;;;;;;1.00;0.60;;;;;;;18.15;58.83;100464.88;5072621;28;20047;-62
2022/07/11 03:31:43;;;;;;;1.02;0.52;;;;;;;18.09;58.73;100467.81;5032949;28;20037;-63
2022/07/11 03:34:08;;;;;;;1.63;0.70;;;;;;;17.96;59.09;100466.75;5035776;28;20033;-62
2022/07/11 03:36:34;;;;;;;0.82;0.50;;;;;;;17.97;58.89;100473.78;5057374;28;20107;-62
2022/07/11 03:38:59;;;;;;;1.50;0.52;;;;;;;18.07;58.63;100479.47;5054922;28;20407;-62
2022/07/11 03:41:25;;;;;;;1.20;0.65;;;;;;;17.97;59.08;100471.13;5035189;28;20033;-62
2022/07/11 03:43:50;;;;;;;2.53;0.82;;;;;;;17.96;58.84;100478.22;5053365;28;20452;-62
2022/07/11 03:46:16;;;;;;;1.73;0.60;;;;;;;18.09;58.90;100480.25;5035648;28;20515;-63
2022/07/11 03:48:41;;;;;;;1.65;0.80;;;;;;;18.19;58.49;100484.16;5033395;28;20033;-62
2022/07/11 03:51:07;;;;;;;1.92;0.68;;;;;;;18.40;58.05;100485.72;5052881;28;20082;-62
2022/07/11 03:53:32;;;;;;;0.98;0.50;;;;;;;18.49;57.99;100481.72;5035911;28;20033;-62
2022/07/11 03:55:58;;;;;;;1.48;0.55;;;;;;;18.71;57.30;100481.44;5052958;28;20048;-62
2022/07/11 03:58:23;;;;;;;1.30;0.70;;;;;;;18.90;57.05;100484.84;5028133;28;20119;-64
2022/07/11 04:00:49;;;;;;;1.00;0.70;;;;;;;19.01;56.71;100488.72;5072583;28;20459;-62
2022/07/11 04:03:14;;;;;;;1.55;0.77;;;;;;;19.14;56.33;100489.75;5072734;28;20048;-62
2022/07/11 04:05:39;;;;;;;3.03;0.82;;;;;;;19.48;55.43;100487.88;5077508;28;20444;-62
2022/07/11 04:08:05;;;;;;;3.80;1.25;;;;;;;19.58;55.00;100489.06;5044090;28;20040;-62
2022/07/11 04:10:30;;;;;;;2.35;1.40;;;;;;;19.29;55.63;100494.22;5071879;28;20163;-62
2022/07/11 04:12:56;;;;;;;2.72;1.83;;;;;;;19.25;55.68;100483.84;5076082;28;20031;-62
2022/07/11 04:15:22;;;;;;;3.20;1.60;;;;;;;19.20;56.01;100489.44;5079853;28;20032;-61
2022/07/11 04:17:47;;;;;;;2.75;1.45;;;;;;;19.06;56.11;100490.19;5050677;28;20035;-62
2022/07/11 04:20:13;;;;;;;1.60;1.33;;;;;;;19.03;56.35;100492.16;5039054;28;20033;-62
2022/07/11 04:22:38;;;;;;;1.63;1.10;;;;;;;19.12;56.25;100497.00;5071364;28;20086;-62
2022/07/11 04:25:04;;;;;;;4.20;1.30;;;;;;;19.29;55.95;100488.91;5054681;28;20062;-62
2022/07/11 04:27:29;;;;;;;2.20;1.38;;;;;;;19.42;55.88;100497.91;5051158;28;20059;-63
2022/07/11 04:29:55;;;;;;;2.45;1.35;;;;;;;19.40;56.32;100497.16;5021076;28;20395;-62
2022/07/11 04:32:20;;;;;;;1.30;1.10;;;;;;;19.57;55.82;100490.00;5058822;28;20087;-61
2022/07/11 04:34:46;;;;;;;3.10;0.80;;;;;;;19.76;55.50;100482.72;5068821;28;20155;-61
2022/07/11 04:37:11;;;;;;;3.85;1.00;;;;;;;19.97;55.19;100488.59;5056838;28;20056;-61
2022/07/11 04:39:37;;;;;;;1.52;0.82;;;;;;;19.76;55.76;100489.84;5067854;28;20044;-61
2022/07/11 04:42:02;;;;;;;4.13;1.00;;;;;;;19.65;56.37;100488.66;5064533;28;20025;-64
2022/07/11 04:44:28;;;;;;;2.85;0.98;;;;;;;19.72;56.03;100493.66;5054025;28;20052;-62
2022/07/11 04:46:54;;;;;;;2.78;1.00;;;;;;;19.63;56.36;100493.22;5035502;28;20043;-61
2022/07/11 04:49:19;;;;;;;2.25;1.00;;;;;;;19.58;56.69;100494.38;5075023;28;20029;-61
2022/07/11 04:51:45;;;;;;;1.80;0.88;;;;;;;19.52;57.23;100497.41;5078009;28;20045;-61
2022/07/11 04:54:11;;;;;;;6.38;1.10;;;;;;;19.72;56.63;100507.81;5046245;28;20098;-62
2022/07/11 04:56:37;;;;;;;2.63;1.13;;;;;;;19.98;56.42;100508.09;5067037;28;20049;-61
2022/07/11 04:59:03;;;;;;;1.55;0.90;;;;;;;19.99;56.17;100504.47;5067506;28;20042;-61
2022/07/11 05:01:29;;;;;;;2.83;1.00;;;;;;;19.93;56.66;100500.38;5055009;28;20032;-61
2022/07/11 05:03:55;;;;;;;1.88;0.90;;;;;;;19.79;57.11;100489.66;5076999;28;20029;-62
2022/07/11 05:06:20;;;;;;;1.38;0.90;;;;;;;20.30;56.09;100485.69;5056817;28;20498;-61
2022/07/11 05:08:46;;;;;;;2.78;0.77;;;;;;;21.04;54.83;100479.38;5061041;28;20463;-62
2022/07/11 05:11:11;;;;;;;2.38;0.80;;;;;;;21.54;53.72;100477.09;5064700;28;20036;-62
2022/07/11 05:13:37;;;;;;;1.55;0.80;;;;;;;21.80;53.00;100486.91;5061020;28;20020;-62
2022/07/11 05:16:03;;;;;;;4.78;2.30;;;;;;;21.57;53.75;100507.16;5029432;28;20061;-61
2022/07/11 05:18:29;;;;;;;5.10;1.50;;;;;;;21.46;54.12;100509.66;5032851;28;20495;-61
2022/07/11 05:20:54;;;;;;;1.98;0.93;;;;;;;20.92;54.65;100506.88;5066215;28;20032;-62
2022/07/11 05:23:23;;;;;;;2.10;0.75;;;;;;;21.22;54.48;100517.41;5059190;28;20029;-62
2022/07/11 05:25:50;;;;;;;1.55;0.65;;;;;;;21.25;54.65;100524.38;5075595;28;20093;-61
2022/07/11 05:28:16;;;;;;;2.45;0.80;;;;;;;21.47;54.19;100519.41;5072773;28;20460;-62
2022/07/11 05:30:41;;;;;;;2.55;0.70;;;;;;;21.12;55.01;100525.16;5073082;28;20029;-62
2022/07/11 05:33:07;;;;;;;4.22;0.70;;;;;;;21.00;55.44;100528.59;5073638;28;20028;-62
2022/07/11 05:35:32;;;;;;;2.80;1.10;;;;;;;20.88;55.71;100530.22;5021250;28;20059;-61
2022/07/11 05:37:57;;;;;;;1.40;0.82;;;;;;;20.55;56.53;100532.31;5058798;28;20036;-62
2022/07/11 05:40:23;;;;;;;5.95;2.40;;;;;;;20.63;56.25;100522.03;5075471;28;20025;-61
2022/07/11 05:42:48;;;;;;;8.65;2.90;;;;;;;20.60;56.48;100528.41;5056278;28;20039;-61
2022/07/11 05:45:14;;;;;;;12.70;5.32;;;;;;;20.60;56.29;100528.41;5069530;28;20029;-62
2022/07/11 05:47:39;;;;;;;8.57;2.72;;;;;;;20.68;56.33;100530.59;5075416;28;20077;-62
2022/07/11 05:50:06;;;;;;;3.97;1.98;;;;;;;20.51;56.69;100531.63;5053302;28;20029;-61
2022/07/11 05:52:31;;;;;;;3.58;1.70;;;;;;;20.78;56.18;100537.06;5057565;28;20028;-61
2022/07/11 05:54:57;;;;;;;2.40;1.10;;;;;;;20.57;56.54;100533.91;5068360;28;20037;-61
2022/07/11 05:57:23;;;;;;;1.52;0.80;;;;;;;20.83;55.89;100537.69;5043329;28;20128;-61
2022/07/11 05:59:48;;;;;;;1.75;0.70;;;;;;;20.54;56.37;100543.91;5043892;28;20107;-62
2022/07/11 06:02:18;;;;;;;2.08;0.70;;;;;;;20.74;55.73;100548.91;5036122;28;20033;-62
2022/07/11 06:04:44;;;;;;;1.27;0.77;;;;;;;21.05;54.98;100557.69;5047780;28;20029;-61
2022/07/11 06:07:11;;;;;;;1.73;0.80;;;;;;;21.27;54.30;100559.91;5023340;28;20124;-61
2022/07/11 06:09:36;;;;;;;1.13;0.50;;;;;;;21.17;54.26;100564.94;5034739;28;20254;-61
2022/07/11 06:12:03;;;;;;;3.42;1.83;;;;;;;21.33;53.88;100563.06;5045373;28;20045;-62
2022/07/11 06:14:28;;;;;;;2.78;0.60;;;;;;;21.42;53.64;100561.59;5054875;28;20357;-61
2022/07/11 06:16:54;;;;;;;1.10;0.60;;;;;;;21.40;53.62;100564.38;5052519;28;20479;-62
2022/07/11 06:19:19;;;;;;;1.75;0.47;;;;;;;21.55;53.45;100569.72;5054517;28;20021;-63
2022/07/11 06:21:45;;;;;;;1.23;0.50;;;;;;;21.55;53.00;100565.22;5051125;28;20049;-62
2022/07/11 06:24:11;;;;;;;0.82;0.38;;;;;;;21.78;52.96;100569.09;5042715;28;20056;-63
2022/07/11 06:26:37;;;;;;;1.05;0.45;;;;;;;22.05;52.38;100578.91;5034392;28;20033;-62
2022/07/11 06:29:03;;;;;;;0.90;0.40;;;;;;;21.85;52.19;100580.22;5033622;28;20029;-62
2022/07/11 06:31:29;;;;;;;0.85;0.35;;;;;;;21.93;52.23;100582.41;5041216;28;20036;-62
2022/07/11 06:33:54;;;;;;;1.42;0.20;;;;;;;21.95;52.51;100580.50;5041742;28;20030;-62
2022/07/11 06:36:26;;;;;;;0.50;0.38;;;;;;;22.24;51.92;100575.91;5034297;28;20069;-62
2022/07/11 06:38:53;;;;;;;1.83;0.40;;;;;;;22.27;51.82;100581.06;5020518;28;20037;-62
2022/07/11 06:41:19;;;;;;;3.05;0.40;;;;;;;22.52;51.63;100574.88;5033220;28;20082;-62
2022/07/11 06:43:47;;;;;;;0.60;0.30;;;;;;;21.69;52.95;100584.84;5033288;28;20101;-62
2022/07/11 06:46:14;;;;;;;0.73;0.30;;;;;;;21.47;53.08;100575.56;5033133;28;20052;-62
2022/07/11 06:48:40;;;;;;;1.77;0.30;;;;;;;21.57;53.24;100568.63;5001066;28;20041;-61
2022/07/11 06:51:06;;;;;;;1.05;0.40;;;;;;;21.26;53.79;100574.19;5033254;28;20063;-61
2022/07/11 06:53:31;;;;;;;0.85;0.22;;;;;;;21.45;53.46;100565.91;5032311;28;20128;-62
2022/07/11 06:55:57;;;;;;;1.80;0.30;;;;;;;21.66;53.11;100569.84;5052997;28;20379;-62
2022/07/11 06:58:31;;;;;;;0.80;0.40;;;;;;;21.55;52.99;100569.72;5068786;28;20375;-62
2022/07/11 07:01:01;;;;;;;1.77;0.30;;;;;;;21.92;52.39;100567.31;5054550;28;20042;-62
2022/07/11 07:03:28;;;;;;;1.92;0.40;;;;;;;22.28;51.62;100564.88;5053652;28;20048;-61
2022/07/11 07:05:55;;;;;;;2.25;0.30;;;;;;;22.79;50.46;100564.09;5054702;28;20060;-62
2022/07/11 07:08:25;;;;;;;0.85;0.30;;;;;;;22.55;50.48;100561.31;5053726;28;20439;-62
2022/07/11 07:10:51;;;;;;;0.88;0.25;;;;;;;23.09;49.86;100556.59;5053385;28;20539;-62
2022/07/11 07:13:18;;;;;;;0.70;0.30;;;;;;;22.95;49.69;100563.91;5035386;28;20407;-62
2022/07/11 07:15:43;;;;;;;1.08;0.28;;;;;;;22.98;49.57;100555.63;5025058;28;20025;-62
2022/07/11 07:18:09;;;;;;;0.40;0.20;;;;;;;23.26;49.02;100555.41;5053812;28;20017;-62
2022/07/11 07:20:34;;;;;;;0.82;0.30;;;;;;;23.39;48.60;100562.56;5036014;28;20407;-62
2022/07/11 07:23:00;;;;;;;0.70;0.45;;;;;;;23.57;48.88;100551.34;5046579;28;20032;-63
2022/07/11 07:25:26;;;;;;;0.70;0.30;;;;;;;23.43;48.50;100562.22;5026647;28;20029;-62
2022/07/11 07:27:52;;;;;;;1.17;0.30;;;;;;;23.34;47.69;100574.50;5063106;28;20036;-62
2022/07/11 07:30:18;;;;;;;0.43;0.20;;;;;;;22.66;48.57;100569.47;5066604;28;20073;-62
2022/07/11 07:32:43;;;;;;;0.43;0.13;;;;;;;22.42;49.58;100579.16;5072159;28;20036;-62
2022/07/11 07:35:09;;;;;;;2.20;0.30;;;;;;;22.69;49.47;100571.91;5073905;28;20056;-62
2022/07/11 07:37:34;;;;;;;0.88;0.20;;;;;;;22.66;48.81;100574.81;5073399;28;20431;-62
2022/07/11 07:40:00;;;;;;;1.10;0.20;;;;;;;22.59;49.38;100578.88;5073561;28;20043;-62
2022/07/11 07:42:25;;;;;;;0.70;0.20;;;;;;;22.91;48.94;100574.00;5072221;28;20515;-62
2022/07/11 07:44:50;;;;;;;2.10;0.45;;;;;;;22.67;50.06;100584.56;5073153;28;20040;-62
2022/07/11 07:47:16;;;;;;;2.35;0.35;;;;;;;22.77;49.94;100593.66;5073551;28;20035;-62
2022/07/11 07:49:41;;;;;;;1.88;0.32;;;;;;;22.47;50.91;100588.59;5040717;28;20533;-63
2022/07/11 07:52:07;;;;;;;1.35;0.35;;;;;;;22.69;50.93;100593.31;5060333;28;20395;-61
2022/07/11 07:54:32;;;;;;;2.60;0.50;;;;;;;22.36;51.76;100597.34;5057244;28;20048;-63
2022/07/11 07:56:57;;;;;;;0.98;0.28;;;;;;;22.32;51.58;100585.13;5034834;28;20054;-62
2022/07/11 07:59:24;;;;;;;1.17;0.30;;;;;;;22.51;51.36;100586.56;5055559;28;20059;-62
2022/07/11 08:01:51;;;;;;;0.82;0.30;;;;;;;22.63;51.24;100596.44;5055223;28;20016;-62
2022/07/11 08:04:17;;;;;;;0.98;0.30;;;;;;;22.78;50.63;100583.78;5055220;28;20036;-61
2022/07/11 08:06:42;;;;;;;1.08;0.30;;;;;;;23.04;49.58;100584.69;5055234;28;20345;-62
2022/07/11 08:09:08;;;;;;;1.10;0.30;;;;;;;23.07;49.52;100584.50;5070200;28;20064;-62
2022/07/11 08:11:34;;;;;;;0.77;0.17;;;;;;;23.17;48.67;100582.00;5061394;28;20021;-62
2022/07/11 08:14:00;;;;;;;1.20;0.43;;;;;;;23.88;47.59;100572.41;5050342;28;20349;-62
2022/07/11 08:16:28;;;;;;;0.68;0.40;;;;;;;23.62;47.71;100577.84;5035162;28;20075;-62
2022/07/11 08:18:55;;;;;;;1.08;0.20;;;;;;;23.62;47.17;100583.22;5035105;28;20072;-62
2022/07/11 08:21:22;;;;;;;0.43;0.20;;;;;;;23.60;47.26;100582.47;5034992;28;20051;-62
2022/07/11 08:23:47;;;;;;;2.03;0.30;;;;;;;23.49;47.41;100593.09;5035534;28;20033;-62
2022/07/11 08:26:13;;;;;;;0.28;0.10;;;;;;;23.03;47.73;100583.84;5035409;28;20029;-62
2022/07/11 08:28:38;;;;;;;0.38;0.20;;;;;;;23.27;47.92;100593.78;5053533;28;20029;-62
2022/07/11 08:31:04;;;;;;;2.35;0.20;;;;;;;23.55;47.08;100581.94;5052757;28;20025;-62
2022/07/11 08:33:30;;;;;;;0.55;0.10;;;;;;;23.75;45.89;100583.19;5040798;28;20028;-62
2022/07/11 08:35:55;;;;;;;2.75;0.50;;;;;;;23.57;46.64;100588.03;5058409;28;20052;-62
2022/07/11 08:38:23;;;;;;;0.98;0.20;;;;;;;23.42;46.32;100607.91;5059736;28;20928;-63
2022/07/11 08:40:50;;;;;;;0.82;0.20;;;;;;;22.97;47.29;100583.41;5047123;28;20029;-63
2022/07/11 08:43:18;;;;;;;0.88;0.30;;;;;;;23.41;46.50;100587.44;5039517;28;20119;-62
2022/07/11 08:45:44;;;;;;;0.50;0.10;;;;;;;23.26;47.06;100587.59;5054500;28;20116;-63
2022/07/11 08:48:09;;;;;;;0.93;0.13;;;;;;;23.41;46.95;100582.06;5042306;28;20049;-62
2022/07/11 08:50:36;;;;;;;1.27;0.40;;;;;;;22.76;47.77;100589.25;5067688;28;20024;-62
2022/07/11 08:53:04;;;;;;;0.80;0.20;;;;;;;23.06;47.16;100582.75;5053311;28;20044;-62
2022/07/11 08:55:29;;;;;;;0.50;0.20;;;;;;;23.34;46.06;100603.97;5055113;28;20431;-63
2022/07/11 08:57:55;;;;;;;0.40;0.10;;;;;;;24.02;45.56;100583.00;5055505;28;20036;-61
2022/07/11 09:00:21;;;;;;;0.60;0.20;;;;;;;24.24;45.39;100604.56;5056235;28;20440;-62
2022/07/11 09:02:48;;;;;;;2.08;0.30;;;;;;;23.87;45.30;100582.28;5054512;28;20091;-62
2022/07/11 09:05:15;;;;;;;1.60;0.10;;;;;;;24.15;44.43;100583.78;5036538;28;20094;-63
2022/07/11 09:07:44;;;;;;;0.77;0.22;;;;;;;23.80;43.14;100587.25;5036858;28;20040;-63
2022/07/11 09:10:10;;;;;;;1.08;0.17;;;;;;;23.58;44.12;100584.41;5035113;28;20109;-62
2022/07/11 09:12:35;;;;;;;0.55;0.13;;;;;;;24.33;43.33;100586.88;5034645;28;20534;-62
2022/07/11 09:15:01;;;;;;;0.30;0.10;;;;;;;23.91;43.78;100593.66;5036366;28;20025;-62
2022/07/11 09:17:33;;;;;;;1.13;0.13;;;;;;;23.61;44.16;100589.53;5036351;28;20041;-63
2022/07/11 09:19:59;;;;;;;0.52;0.10;;;;;;;23.55;44.24;100587.31;5034626;28;20037;-63
2022/07/11 09:25:31;;;;;;;1.27;0.40;;;;;;;23.00;43.77;100600.13;5035596;28;20116;-62
2022/07/11 09:28:04;;;;;;;0.20;0.15;;;;;;;23.94;43.04;100580.00;5050812;28;20025;-62
2022/07/11 09:30:31;;;;;;;0.68;0.20;;;;;;;24.61;41.87;100582.97;5036933;28;20041;-62
2022/07/11 09:32:58;;;;;;;0.47;0.10;;;;;;;24.28;42.26;100583.69;5042838;28;20053;-62
2022/07/11 09:35:26;;;;;;;0.22;0.10;;;;;;;24.47;41.21;100581.34;5055764;28;20122;-62
2022/07/11 09:37:51;;;;;;;0.40;0.30;;;;;;;23.78;43.24;100586.50;5054558;28;20037;-63
2022/07/11 09:40:18;;;;;;;1.55;0.20;;;;;;;23.96;42.49;100594.16;5053226;28;20033;-63
2022/07/11 09:42:52;;;;;;;1.55;0.20;;;;;;;23.84;42.22;100580.69;5039669;28;20021;-62
2022/07/11 09:45:19;;;;;;;0.30;0.10;;;;;;;24.24;41.03;100585.75;5035767;28;20037;-63
2022/07/11 09:47:49;;;;;;;0.73;0.10;;;;;;;24.71;39.36;100583.97;5049902;28;20036;-63
2022/07/11 09:50:20;;;;;;;0.68;0.22;;;;;;;25.03;39.42;100576.09;5034223;28;20025;-63
2022/07/11 09:53:06;;;;;;;1.48;0.10;;;;;;;25.26;38.51;100578.81;5034345;28;20031;-63
2022/07/11 09:55:37;;;;;;;1.08;0.20;;;;;;;25.27;38.26;100577.84;5054200;28;20036;-63
2022/07/11 09:58:08;;;;;;;0.57;0.10;;;;;;;25.28;37.43;100572.31;5075549;28;20466;-63
2022/07/11 10:00:35;;;;;;;1.08;0.20;;;;;;;26.23;37.11;100578.00;5053235;28;20378;-62
2022/07/11 10:03:02;;;;;;;0.82;0.15;;;;;;;25.29;38.51;100575.88;5057445;28;20036;-63
2022/07/11 10:05:28;;;;;;;0.93;0.10;;;;;;;24.81;39.49;100587.66;5040147;28;20032;-63
2022/07/11 10:07:55;;;;;;;0.47;0.20;;;;;;;24.60;40.71;100588.47;5056012;28;20075;-62
2022/07/11 10:10:21;;;;;;;2.25;0.30;;;;;;;24.47;40.61;100583.19;5057163;28;20055;-63
2022/07/11 10:12:46;;;;;;;0.80;0.20;;;;;;;24.79;39.61;100589.63;5057047;28;20069;-62
2022/07/11 10:15:16;;;;;;;0.45;0.20;;;;;;;24.74;38.55;100586.44;5036756;28;20056;-63
2022/07/11 10:18:07;;;;;;;0.80;0.20;;;;;;;25.11;38.33;100586.28;5054765;28;20024;-63
2022/07/11 10:20:53;;;;;;;0.40;0.10;;;;;;;25.91;37.96;100587.91;5060822;28;20067;-62
2022/07/11 10:23:37;;;;;;;0.40;0.10;;;;;;;25.89;38.94;100600.63;5060010;28;20068;-63
2022/07/11 10:26:28;;;;;;;0.25;0.15;;;;;;;24.99;40.45;100608.72;5074812;28;20111;-63
2022/07/11 10:29:14;;;;;;;0.28;0.10;;;;;;;25.29;40.69;100609.00;5065385;28;20034;-62
2022/07/11 10:31:40;;;;;;;1.00;0.10;;;;;;;25.56;40.05;100605.91;5043325;28;20040;-62
2022/07/11 10:34:10;;;;;;;0.90;0.25;;;;;;;25.66;39.70;100606.06;5031700;28;20033;-63
2022/07/11 10:36:43;;;;;;;2.17;0.22;;;;;;;25.25;39.77;100607.53;5036629;28;20115;-62
2022/07/11 10:39:26;;;;;;;1.92;0.20;;;;;;;25.30;39.67;100613.41;5023933;28;20028;-63
2022/07/11 10:41:53;;;;;;;0.98;0.20;;;;;;;25.29;39.62;100611.72;5041700;28;20112;-63
2022/07/11 10:44:19;;;;;;;0.73;0.10;;;;;;;24.24;38.18;100620.66;5038129;28;20090;-63
2022/07/11 10:46:44;;;;;;;0.30;0.10;;;;;;;23.73;39.89;100622.69;5038341;28;20036;-64
2022/07/11 10:49:21;;;;;;;1.10;0.13;;;;;;;23.01;40.94;100633.13;5070588;28;20025;-63
2022/07/11 10:51:50;;;;;;;1.98;0.28;;;;;;;22.19;42.87;100637.75;5056285;28;20021;-63
2022/07/11 10:54:33;;;;;;;0.90;0.22;;;;;;;22.32;44.04;100635.13;5074234;28;20020;-63
2022/07/11 10:57:55;;;;;;;0.80;0.15;;;;;;;22.19;45.21;100629.75;5055997;28;20083;-63
2022/07/11 11:00:21;;;;;;;0.80;0.30;;;;;;;22.29;45.40;100649.56;5012387;28;20034;-63
2022/07/11 11:03:08;;;;;;;1.80;0.30;;;;;;;22.55;45.51;100644.31;5012083;28;20444;-63
2022/07/11 11:05:52;;;;;;;3.40;0.30;;;;;;;23.43;43.89;100644.50;5023450;28;20090;-63
2022/07/11 11:08:40;;;;;;;1.20;0.30;;;;;;;23.73;43.29;100647.69;5061106;28;20512;-64
2022/07/11 11:11:21;;;;;;;1.65;0.43;;;;;;;23.73;44.21;100647.69;5056497;28;20044;-63
2022/07/11 11:14:27;;;;;;;0.43;0.20;;;;;;;24.20;43.95;100635.28;5088705;28;20447;-64
2022/07/11 11:16:53;;;;;;;0.90;0.40;;;;;;;24.97;42.08;100645.59;5071532;28;20064;-64
2022/07/11 11:19:46;;;;;;;2.40;0.10;;;;;;;25.06;40.97;100655.66;5072655;28;20036;-64
2022/07/11 11:22:16;;;;;;;0.90;0.10;;;;;;;24.37;41.92;100670.75;5073578;28;20474;-64
2022/07/11 11:24:43;;;;;;;1.75;0.20;;;;;;;24.22;42.61;100652.16;5075694;28;20387;-64
2022/07/11 11:27:28;;;;;;;0.40;0.10;;;;;;;23.97;43.49;100650.41;5094328;28;20037;-63
2022/07/11 11:29:55;;;;;;;1.35;0.28;;;;;;;24.06;43.03;100655.09;5060772;28;20031;-64